PWSweather.com
Personal Weather Stations
Station Observations
LEONMETEO
LeonES 24008

LeonES 24008

Lat: 42.6055559, Lon: -5.5752249

Elevation: 2690

Station Type: La Crosse WS3600

Latest ConditionsUpdated 4:59:23 PM GMT+01:01 Friday, Jan 20, 2017
Currently Today's Max Today's Min Today's Average
Temperature 44.9°F7.2°C 44.9°F7.2°C 24.8°F-4.0°C 28.6°F-1.9°C
Dew Point 31.9°F-0.1°C 31.9°F-0.1°C 16.6°F-8.6°C 19.5°F-6.9°C
Winds - N16091.8 kmh N Calm Calm - Calm Calm
Wind Gusts -- -- - -
Humidity 60% 71% 60% 69%
Pressure 29.81 in1009.5 mb 29.90 in1012.5 mb 29.80 in1009.1 mb -
Hour Temp Dew Point Humidity Winds Wind Gusts Pressure Precip Precip Rate Daily Precip Total
04:59 PM 44.9°F7.2°C 31.9°F-0.1°C 60% - N16091.8 kmh N -- 29.81 in1009.5 mb 0.00 in0.0 mm 0.00 in0.0 mm 0.00 in0.0 mm
04:53 PM 44.9°F7.2°C 31.9°F-0.1°C 60% - N16091.8 kmh N -- 29.80 in1009.1 mb 0.00 in0.0 mm 0.00 in0.0 mm 0.00 in0.0 mm
04:48 PM 44.9°F7.2°C 31.9°F-0.1°C 60% - N16091.8 kmh N -- 29.81 in1009.5 mb 0.00 in0.0 mm 0.00 in0.0 mm 0.00 in0.0 mm
04:45 PM 44.9°F7.2°C 31.9°F-0.1°C 60% - N16091.8 kmh N -- 29.81 in1009.5 mb 0.00 in0.0 mm 0.00 in0.0 mm 0.00 in0.0 mm
04:39 PM 44.7°F7.1°C 31.8°F-0.1°C 60% - N16091.8 kmh N -- 29.81 in1009.5 mb 0.00 in0.0 mm 0.00 in0.0 mm 0.00 in0.0 mm
04:34 PM 44.7°F7.1°C 31.8°F-0.1°C 60% - N16091.8 kmh N -- 29.81 in1009.5 mb 0.00 in0.0 mm 0.00 in0.0 mm 0.00 in0.0 mm
04:27 PM 44.9°F7.2°C 31.9°F-0.1°C 60% - N16091.8 kmh N -- 29.81 in1009.5 mb 0.00 in0.0 mm 0.00 in0.0 mm 0.00 in0.0 mm
04:24 PM 44.9°F7.2°C 31.9°F-0.1°C 60% - N16091.8 kmh N -- 29.81 in1009.5 mb 0.00 in0.0 mm 0.00 in0.0 mm 0.00 in0.0 mm
04:18 PM 44.9°F7.2°C 31.9°F-0.1°C 60% - N16091.8 kmh N -- 29.81 in1009.5 mb 0.00 in0.0 mm 0.00 in0.0 mm 0.00 in0.0 mm
04:11 PM 44.9°F7.2°C 31.9°F-0.1°C 60% - N16091.8 kmh N -- 29.81 in1009.5 mb 0.00 in0.0 mm 0.00 in0.0 mm 0.00 in0.0 mm
04:06 PM 44.9°F7.2°C 31.9°F-0.1°C 60% - N16091.8 kmh N -- 29.81 in1009.5 mb 0.00 in0.0 mm 0.00 in0.0 mm 0.00 in0.0 mm
04:03 PM 44.9°F7.2°C 31.9°F-0.1°C 60% - N16091.8 kmh N -- 29.81 in1009.5 mb 0.00 in0.0 mm 0.00 in0.0 mm 0.00 in0.0 mm
03:59 PM 44.9°F7.2°C 31.9°F-0.1°C 60% - N16091.8 kmh N -- 29.81 in1009.5 mb 0.00 in0.0 mm 0.00 in0.0 mm 0.00 in0.0 mm
03:57 PM 31.1°F-0.5°C 22.1°F-5.5°C 69% - N16091.8 kmh N -- 29.88 in1011.9 mb 0.00 in0.0 mm 0.00 in0.0 mm 0.00 in0.0 mm
11:29 AM 30.7°F-0.7°C 22.1°F-5.5°C 70% - N16091.8 kmh N -- 29.88 in1011.9 mb 0.00 in0.0 mm 0.00 in0.0 mm 0.00 in0.0 mm
11:24 AM 30.3°F-0.9°C 21.7°F-5.7°C 70% - N16091.8 kmh N -- 29.88 in1011.9 mb 0.00 in0.0 mm 0.00 in0.0 mm 0.00 in0.0 mm
11:19 AM 29.8°F-1.2°C 21.2°F-6.0°C 70% - N16091.8 kmh N -- 29.88 in1011.9 mb 0.00 in0.0 mm 0.00 in0.0 mm 0.00 in0.0 mm
11:14 AM 29.3°F-1.5°C 20.7°F-6.3°C 70% - N16091.8 kmh N -- 29.88 in1011.9 mb 0.00 in0.0 mm 0.00 in0.0 mm 0.00 in0.0 mm
11:09 AM 28.9°F-1.7°C 20.4°F-6.4°C 70% - N16091.8 kmh N -- 29.88 in1011.9 mb 0.00 in0.0 mm 0.00 in0.0 mm 0.00 in0.0 mm
11:04 AM 28.5°F-1.9°C 20.1°F-6.6°C 70% - N16091.8 kmh N -- 29.88 in1011.9 mb 0.00 in0.0 mm 0.00 in0.0 mm 0.00 in0.0 mm
10:59 AM 28.0°F-2.2°C 19.5°F-6.9°C 70% - N16091.8 kmh N -- 29.88 in1011.9 mb 0.00 in0.0 mm 0.00 in0.0 mm 0.00 in0.0 mm
10:54 AM 27.6°F-2.4°C 19.2°F-7.1°C 70% - N16091.8 kmh N -- 29.88 in1011.9 mb 0.00 in0.0 mm 0.00 in0.0 mm 0.00 in0.0 mm
10:49 AM 27.5°F-2.5°C 19.3°F-7.1°C 71% - N16091.8 kmh N -- 29.87 in1011.5 mb 0.00 in0.0 mm 0.00 in0.0 mm 0.00 in0.0 mm
10:44 AM 27.1°F-2.7°C 18.9°F-7.3°C 71% - N16091.8 kmh N -- 29.87 in1011.5 mb 0.00 in0.0 mm 0.00 in0.0 mm 0.00 in0.0 mm
10:39 AM 26.9°F-2.8°C 18.8°F-7.3°C 71% - N16091.8 kmh N -- 29.87 in1011.5 mb 0.00 in0.0 mm 0.00 in0.0 mm 0.00 in0.0 mm
10:34 AM 26.7°F-2.9°C 18.6°F-7.4°C 71% - N16091.8 kmh N -- 29.87 in1011.5 mb 0.00 in0.0 mm 0.00 in0.0 mm 0.00 in0.0 mm
10:29 AM 26.2°F-3.2°C 18.0°F-7.8°C 71% - N16091.8 kmh N -- 29.87 in1011.5 mb 0.00 in0.0 mm 0.00 in0.0 mm 0.00 in0.0 mm
10:24 AM 26.2°F-3.2°C 18.0°F-7.8°C 71% - N16091.8 kmh N -- 29.87 in1011.5 mb 0.00 in0.0 mm 0.00 in0.0 mm 0.00 in0.0 mm
10:19 AM 25.8°F-3.4°C 17.7°F-7.9°C 70% - N16091.8 kmh N -- 29.87 in1011.5 mb 0.00 in0.0 mm 0.00 in0.0 mm 0.00 in0.0 mm
10:14 AM 25.7°F-3.5°C 17.2°F-8.2°C 70% - N16091.8 kmh N -- 29.86 in1011.2 mb 0.00 in0.0 mm 0.00 in0.0 mm 0.00 in0.0 mm
10:09 AM 25.7°F-3.5°C 17.2°F-8.2°C 70% - N16091.8 kmh N -- 29.87 in1011.5 mb 0.00 in0.0 mm 0.00 in0.0 mm 0.00 in0.0 mm
10:04 AM 25.5°F-3.6°C 17.0°F-8.3°C 70% - N16091.8 kmh N -- 29.87 in1011.5 mb 0.00 in0.0 mm 0.00 in0.0 mm 0.00 in0.0 mm
09:59 AM 25.5°F-3.6°C 17.0°F-8.3°C 70% - N16091.8 kmh N -- 29.86 in1011.2 mb 0.00 in0.0 mm 0.00 in0.0 mm 0.00 in0.0 mm
09:54 AM 25.5°F-3.6°C 17.0°F-8.3°C 70% - N16091.8 kmh N -- 29.87 in1011.5 mb 0.00 in0.0 mm 0.00 in0.0 mm 0.00 in0.0 mm
09:49 AM 25.7°F-3.5°C 17.5°F-8.1°C 71% - N16091.8 kmh N -- 29.86 in1011.2 mb 0.00 in0.0 mm 0.00 in0.0 mm 0.00 in0.0 mm
09:43 AM 25.5°F-3.6°C 17.3°F-8.2°C 71% - N16091.8 kmh N -- 29.87 in1011.5 mb 0.00 in0.0 mm 0.00 in0.0 mm 0.00 in0.0 mm
09:38 AM 25.5°F-3.6°C 17.3°F-8.2°C 71% - N16091.8 kmh N -- 29.87 in1011.5 mb 0.00 in0.0 mm 0.00 in0.0 mm 0.00 in0.0 mm
09:33 AM 25.5°F-3.6°C 17.3°F-8.2°C 71% - N16091.8 kmh N -- 29.86 in1011.2 mb 0.00 in0.0 mm 0.00 in0.0 mm 0.00 in0.0 mm
09:28 AM 25.3°F-3.7°C 17.2°F-8.2°C 71% - N16091.8 kmh N -- 29.86 in1011.2 mb 0.00 in0.0 mm 0.00 in0.0 mm 0.00 in0.0 mm
09:23 AM 25.3°F-3.7°C 17.2°F-8.2°C 71% - N16091.8 kmh N -- 29.86 in1011.2 mb 0.00 in0.0 mm 0.00 in0.0 mm 0.00 in0.0 mm
09:18 AM 25.3°F-3.7°C 17.2°F-8.2°C 71% - N16091.8 kmh N -- 29.86 in1011.2 mb 0.00 in0.0 mm 0.00 in0.0 mm 0.00 in0.0 mm
09:13 AM 25.3°F-3.7°C 17.2°F-8.2°C 71% - N16091.8 kmh N -- 29.86 in1011.2 mb 0.00 in0.0 mm 0.00 in0.0 mm 0.00 in0.0 mm
09:08 AM 25.1°F-3.8°C 17.0°F-8.3°C 71% - N16091.8 kmh N -- 29.86 in1011.2 mb 0.00 in0.0 mm 0.00 in0.0 mm 0.00 in0.0 mm
09:03 AM 24.9°F-3.9°C 16.8°F-8.4°C 71% - N16091.8 kmh N -- 29.86 in1011.2 mb 0.00 in0.0 mm 0.00 in0.0 mm 0.00 in0.0 mm
08:58 AM 24.9°F-3.9°C 16.8°F-8.4°C 71% - N16091.8 kmh N -- 29.86 in1011.2 mb 0.00 in0.0 mm 0.00 in0.0 mm 0.00 in0.0 mm
08:53 AM 24.9°F-3.9°C 16.8°F-8.4°C 71% - N16091.8 kmh N -- 29.86 in1011.2 mb 0.00 in0.0 mm 0.00 in0.0 mm 0.00 in0.0 mm
08:48 AM 24.9°F-3.9°C 16.8°F-8.4°C 71% - N16091.8 kmh N -- 29.86 in1011.2 mb 0.00 in0.0 mm 0.00 in0.0 mm 0.00 in0.0 mm
08:43 AM 24.9°F-3.9°C 16.8°F-8.4°C 71% - N16091.8 kmh N -- 29.86 in1011.2 mb 0.00 in0.0 mm 0.00 in0.0 mm 0.00 in0.0 mm
08:38 AM 24.9°F-3.9°C 16.8°F-8.4°C 71% - N16091.8 kmh N -- 29.86 in1011.2 mb 0.00 in0.0 mm 0.00 in0.0 mm 0.00 in0.0 mm
08:33 AM 24.9°F-3.9°C 16.8°F-8.4°C 71% - N16091.8 kmh N -- 29.86 in1011.2 mb 0.00 in0.0 mm 0.00 in0.0 mm 0.00 in0.0 mm
08:28 AM 24.9°F-3.9°C 16.8°F-8.4°C 71% - N16091.8 kmh N -- 29.86 in1011.2 mb 0.00 in0.0 mm 0.00 in0.0 mm 0.00 in0.0 mm
08:23 AM 24.9°F-3.9°C 16.8°F-8.4°C 71% - N16091.8 kmh N -- 29.86 in1011.2 mb 0.00 in0.0 mm 0.00 in0.0 mm 0.00 in0.0 mm
08:18 AM 24.8°F-4.0°C 16.6°F-8.6°C 71% - N16091.8 kmh N -- 29.86 in1011.2 mb 0.00 in0.0 mm 0.00 in0.0 mm 0.00 in0.0 mm
08:13 AM 24.8°F-4.0°C 16.6°F-8.6°C 71% - N16091.8 kmh N -- 29.86 in1011.2 mb 0.00 in0.0 mm 0.00 in0.0 mm 0.00 in0.0 mm
08:08 AM 24.8°F-4.0°C 16.6°F-8.6°C 71% - N16091.8 kmh N -- 29.86 in1011.2 mb 0.00 in0.0 mm 0.00 in0.0 mm 0.00 in0.0 mm
08:03 AM 24.8°F-4.0°C 16.6°F-8.6°C 71% - N16091.8 kmh N -- 29.86 in1011.2 mb 0.00 in0.0 mm 0.00 in0.0 mm 0.00 in0.0 mm
07:58 AM 24.9°F-3.9°C 16.8°F-8.4°C 71% - N16091.8 kmh N -- 29.86 in1011.2 mb 0.00 in0.0 mm 0.00 in0.0 mm 0.00 in0.0 mm
07:53 AM 24.9°F-3.9°C 16.8°F-8.4°C 71% - N16091.8 kmh N -- 29.86 in1011.2 mb 0.00 in0.0 mm 0.00 in0.0 mm 0.00 in0.0 mm
07:48 AM 25.1°F-3.8°C 17.0°F-8.3°C 71% - N16091.8 kmh N -- 29.86 in1011.2 mb 0.00 in0.0 mm 0.00 in0.0 mm 0.00 in0.0 mm
07:43 AM 25.3°F-3.7°C 16.8°F-8.4°C 71% - N16091.8 kmh N -- 29.86 in1011.2 mb 0.00 in0.0 mm 0.00 in0.0 mm 0.00 in0.0 mm
07:38 AM 25.3°F-3.7°C 16.8°F-8.4°C 70% - N16091.8 kmh N -- 29.86 in1011.2 mb 0.00 in0.0 mm 0.00 in0.0 mm 0.00 in0.0 mm
07:33 AM 25.3°F-3.7°C 16.8°F-8.4°C 70% - N16091.8 kmh N -- 29.86 in1011.2 mb 0.00 in0.0 mm 0.00 in0.0 mm 0.00 in0.0 mm
07:28 AM 25.3°F-3.7°C 16.8°F-8.4°C 70% - N16091.8 kmh N -- 29.86 in1011.2 mb 0.00 in0.0 mm 0.00 in0.0 mm 0.00 in0.0 mm
07:23 AM 25.3°F-3.7°C 16.8°F-8.4°C 70% - N16091.8 kmh N -- 29.86 in1011.2 mb 0.00 in0.0 mm 0.00 in0.0 mm 0.00 in0.0 mm
07:18 AM 25.5°F-3.6°C 17.0°F-8.3°C 70% - N16091.8 kmh N -- 29.86 in1011.2 mb 0.00 in0.0 mm 0.00 in0.0 mm 0.00 in0.0 mm
07:13 AM 25.5°F-3.6°C 17.0°F-8.3°C 70% - N16091.8 kmh N -- 29.86 in1011.2 mb 0.00 in0.0 mm 0.00 in0.0 mm 0.00 in0.0 mm
07:08 AM 25.5°F-3.6°C 17.0°F-8.3°C 70% - N16091.8 kmh N -- 29.86 in1011.2 mb 0.00 in0.0 mm 0.00 in0.0 mm 0.00 in0.0 mm
07:03 AM 25.7°F-3.5°C 17.2°F-8.2°C 70% - N16091.8 kmh N -- 29.86 in1011.2 mb 0.00 in0.0 mm 0.00 in0.0 mm 0.00 in0.0 mm
06:58 AM 25.8°F-3.4°C 17.4°F-8.1°C 70% - N16091.8 kmh N -- 29.86 in1011.2 mb 0.00 in0.0 mm 0.00 in0.0 mm 0.00 in0.0 mm
06:53 AM 25.8°F-3.4°C 17.4°F-8.1°C 70% - N16091.8 kmh N -- 29.86 in1011.2 mb 0.00 in0.0 mm 0.00 in0.0 mm 0.00 in0.0 mm
06:48 AM 26.2°F-3.2°C 18.0°F-7.8°C 70% - N16091.8 kmh N -- 29.86 in1011.2 mb 0.00 in0.0 mm 0.00 in0.0 mm 0.00 in0.0 mm
06:42 AM 26.2°F-3.2°C 18.0°F-7.8°C 71% - N16091.8 kmh N -- 29.86 in1011.2 mb 0.00 in0.0 mm 0.00 in0.0 mm 0.00 in0.0 mm
06:38 AM 26.4°F-3.1°C 18.2°F-7.7°C 71% - N16091.8 kmh N -- 29.86 in1011.2 mb 0.00 in0.0 mm 0.00 in0.0 mm 0.00 in0.0 mm
06:33 AM 26.4°F-3.1°C 18.2°F-7.7°C 71% - N16091.8 kmh N -- 29.86 in1011.2 mb 0.00 in0.0 mm 0.00 in0.0 mm 0.00 in0.0 mm
06:27 AM 26.2°F-3.2°C 17.7°F-7.9°C 71% - N16091.8 kmh N -- 29.87 in1011.5 mb 0.00 in0.0 mm 0.00 in0.0 mm 0.00 in0.0 mm
06:22 AM 26.2°F-3.2°C 17.7°F-7.9°C 71% - N16091.8 kmh N -- 29.87 in1011.5 mb 0.00 in0.0 mm 0.00 in0.0 mm 0.00 in0.0 mm
06:17 AM 26.2°F-3.2°C 17.7°F-7.9°C 71% - N16091.8 kmh N -- 29.87 in1011.5 mb 0.00 in0.0 mm 0.00 in0.0 mm 0.00 in0.0 mm
06:12 AM 26.2°F-3.2°C 17.7°F-7.9°C 71% - N16091.8 kmh N -- 29.87 in1011.5 mb 0.00 in0.0 mm 0.00 in0.0 mm 0.00 in0.0 mm
06:07 AM 26.0°F-3.3°C 17.6°F-8.0°C 70% - N16091.8 kmh N -- 29.87 in1011.5 mb 0.00 in0.0 mm 0.00 in0.0 mm 0.00 in0.0 mm
06:02 AM 25.8°F-3.4°C 17.4°F-8.1°C 70% - N16091.8 kmh N -- 29.87 in1011.5 mb 0.00 in0.0 mm 0.00 in0.0 mm 0.00 in0.0 mm
05:57 AM 25.8°F-3.4°C 17.4°F-8.1°C 70% - N16091.8 kmh N -- 29.87 in1011.5 mb 0.00 in0.0 mm 0.00 in0.0 mm 0.00 in0.0 mm
05:52 AM 25.8°F-3.4°C 17.4°F-8.1°C 70% - N16091.8 kmh N -- 29.87 in1011.5 mb 0.00 in0.0 mm 0.00 in0.0 mm 0.00 in0.0 mm
05:47 AM 25.8°F-3.4°C 17.4°F-8.1°C 70% - N16091.8 kmh N -- 29.87 in1011.5 mb 0.00 in0.0 mm 0.00 in0.0 mm 0.00 in0.0 mm
05:42 AM 25.8°F-3.4°C 17.4°F-8.1°C 70% - N16091.8 kmh N -- 29.88 in1011.9 mb 0.00 in0.0 mm 0.00 in0.0 mm 0.00 in0.0 mm
05:37 AM 25.8°F-3.4°C 17.4°F-8.1°C 70% - N16091.8 kmh N -- 29.88 in1011.9 mb 0.00 in0.0 mm 0.00 in0.0 mm 0.00 in0.0 mm
05:32 AM 26.2°F-3.2°C 17.7°F-7.9°C 70% - N16091.8 kmh N -- 29.88 in1011.9 mb 0.00 in0.0 mm 0.00 in0.0 mm 0.00 in0.0 mm
05:27 AM 26.2°F-3.2°C 17.7°F-7.9°C 70% - N16091.8 kmh N -- 29.87 in1011.5 mb 0.00 in0.0 mm 0.00 in0.0 mm 0.00 in0.0 mm
05:22 AM 26.2°F-3.2°C 17.7°F-7.9°C 70% - N16091.8 kmh N -- 29.88 in1011.9 mb 0.00 in0.0 mm 0.00 in0.0 mm 0.00 in0.0 mm
05:17 AM 26.2°F-3.2°C 17.7°F-7.9°C 70% - N16091.8 kmh N -- 29.88 in1011.9 mb 0.00 in0.0 mm 0.00 in0.0 mm 0.00 in0.0 mm
05:12 AM 26.2°F-3.2°C 17.7°F-7.9°C 70% - N16091.8 kmh N -- 29.88 in1011.9 mb 0.00 in0.0 mm 0.00 in0.0 mm 0.00 in0.0 mm
05:07 AM 26.4°F-3.1°C 17.6°F-8.0°C 70% - N16091.8 kmh N -- 29.88 in1011.9 mb 0.00 in0.0 mm 0.00 in0.0 mm 0.00 in0.0 mm
05:02 AM 26.4°F-3.1°C 17.6°F-8.0°C 70% - N16091.8 kmh N -- 29.88 in1011.9 mb 0.00 in0.0 mm 0.00 in0.0 mm 0.00 in0.0 mm
04:57 AM 26.4°F-3.1°C 17.6°F-8.0°C 70% - N16091.8 kmh N -- 29.88 in1011.9 mb 0.00 in0.0 mm 0.00 in0.0 mm 0.00 in0.0 mm
04:52 AM 26.7°F-2.9°C 17.9°F-7.8°C 70% - N16091.8 kmh N -- 29.88 in1011.9 mb 0.00 in0.0 mm 0.00 in0.0 mm 0.00 in0.0 mm
04:47 AM 26.7°F-2.9°C 17.9°F-7.8°C 70% - N16091.8 kmh N -- 29.88 in1011.9 mb 0.00 in0.0 mm 0.00 in0.0 mm 0.00 in0.0 mm
04:42 AM 26.7°F-2.9°C 17.9°F-7.8°C 69% - N16091.8 kmh N -- 29.88 in1011.9 mb 0.00 in0.0 mm 0.00 in0.0 mm 0.00 in0.0 mm
04:37 AM 26.7°F-2.9°C 17.9°F-7.8°C 69% - N16091.8 kmh N -- 29.88 in1011.9 mb 0.00 in0.0 mm 0.00 in0.0 mm 0.00 in0.0 mm
04:32 AM 26.9°F-2.8°C 18.5°F-7.5°C 70% - N16091.8 kmh N -- 29.88 in1011.9 mb 0.00 in0.0 mm 0.00 in0.0 mm 0.00 in0.0 mm
04:27 AM 27.1°F-2.7°C 18.6°F-7.4°C 70% - N16091.8 kmh N -- 29.87 in1011.5 mb 0.00 in0.0 mm 0.00 in0.0 mm 0.00 in0.0 mm
04:22 AM 26.9°F-2.8°C 18.5°F-7.5°C 70% - N16091.8 kmh N -- 29.88 in1011.9 mb 0.00 in0.0 mm 0.00 in0.0 mm 0.00 in0.0 mm
04:17 AM 26.9°F-2.8°C 18.5°F-7.5°C 69% - N16091.8 kmh N -- 29.88 in1011.9 mb 0.00 in0.0 mm 0.00 in0.0 mm 0.00 in0.0 mm
04:12 AM 26.9°F-2.8°C 18.5°F-7.5°C 70% - N16091.8 kmh N -- 29.88 in1011.9 mb 0.00 in0.0 mm 0.00 in0.0 mm 0.00 in0.0 mm
04:06 AM 26.7°F-2.9°C 17.9°F-7.8°C 69% - N16091.8 kmh N -- 29.88 in1011.9 mb 0.00 in0.0 mm 0.00 in0.0 mm 0.00 in0.0 mm
04:01 AM 26.7°F-2.9°C 17.9°F-7.8°C 69% - N16091.8 kmh N -- 29.87 in1011.5 mb 0.00 in0.0 mm 0.00 in0.0 mm 0.00 in0.0 mm
03:56 AM 26.7°F-2.9°C 17.9°F-7.8°C 69% - N16091.8 kmh N -- 29.88 in1011.9 mb 0.00 in0.0 mm 0.00 in0.0 mm 0.00 in0.0 mm
03:51 AM 26.7°F-2.9°C 17.9°F-7.8°C 69% - N16091.8 kmh N -- 29.88 in1011.9 mb 0.00 in0.0 mm 0.00 in0.0 mm 0.00 in0.0 mm
03:46 AM 26.4°F-3.1°C 17.2°F-8.2°C 69% - N16091.8 kmh N -- 29.88 in1011.9 mb 0.00 in0.0 mm 0.00 in0.0 mm 0.00 in0.0 mm
03:41 AM 26.4°F-3.1°C 17.2°F-8.2°C 69% - N16091.8 kmh N -- 29.88 in1011.9 mb 0.00 in0.0 mm 0.00 in0.0 mm 0.00 in0.0 mm
03:36 AM 26.4°F-3.1°C 17.2°F-8.2°C 69% - N16091.8 kmh N -- 29.88 in1011.9 mb 0.00 in0.0 mm 0.00 in0.0 mm 0.00 in0.0 mm
03:31 AM 26.4°F-3.1°C 17.2°F-8.2°C 69% - N16091.8 kmh N -- 29.88 in1011.9 mb 0.00 in0.0 mm 0.00 in0.0 mm 0.00 in0.0 mm
03:26 AM 26.4°F-3.1°C 17.2°F-8.2°C 68% - N16091.8 kmh N -- 29.88 in1011.9 mb 0.00 in0.0 mm 0.00 in0.0 mm 0.00 in0.0 mm
03:21 AM 26.4°F-3.1°C 17.2°F-8.2°C 68% - N16091.8 kmh N -- 29.88 in1011.9 mb 0.00 in0.0 mm 0.00 in0.0 mm 0.00 in0.0 mm
03:16 AM 26.7°F-2.9°C 17.6°F-8.0°C 68% - N16091.8 kmh N -- 29.88 in1011.9 mb 0.00 in0.0 mm 0.00 in0.0 mm 0.00 in0.0 mm
03:11 AM 26.7°F-2.9°C 17.6°F-8.0°C 68% - N16091.8 kmh N -- 29.88 in1011.9 mb 0.00 in0.0 mm 0.00 in0.0 mm 0.00 in0.0 mm
03:06 AM 26.9°F-2.8°C 17.7°F-7.9°C 68% - N16091.8 kmh N -- 29.88 in1011.9 mb 0.00 in0.0 mm 0.00 in0.0 mm 0.00 in0.0 mm
03:01 AM 27.1°F-2.7°C 17.9°F-7.8°C 68% - N16091.8 kmh N -- 29.88 in1011.9 mb 0.00 in0.0 mm 0.00 in0.0 mm 0.00 in0.0 mm
02:56 AM 27.3°F-2.6°C 18.1°F-7.7°C 68% - N16091.8 kmh N -- 29.88 in1011.9 mb 0.00 in0.0 mm 0.00 in0.0 mm 0.00 in0.0 mm
02:51 AM 27.3°F-2.6°C 18.1°F-7.7°C 68% - N16091.8 kmh N -- 29.88 in1011.9 mb 0.00 in0.0 mm 0.00 in0.0 mm 0.00 in0.0 mm
02:46 AM 27.6°F-2.4°C 18.5°F-7.5°C 68% - N16091.8 kmh N -- 29.88 in1011.9 mb 0.00 in0.0 mm 0.00 in0.0 mm 0.00 in0.0 mm
02:41 AM 27.8°F-2.3°C 18.6°F-7.4°C 68% - N16091.8 kmh N -- 29.88 in1011.9 mb 0.00 in0.0 mm 0.00 in0.0 mm 0.00 in0.0 mm
02:36 AM 28.0°F-2.2°C 18.8°F-7.3°C 68% - N16091.8 kmh N -- 29.88 in1011.9 mb 0.00 in0.0 mm 0.00 in0.0 mm 0.00 in0.0 mm
02:31 AM 28.0°F-2.2°C 18.8°F-7.3°C 68% - N16091.8 kmh N -- 29.88 in1011.9 mb 0.00 in0.0 mm 0.00 in0.0 mm 0.00 in0.0 mm
02:26 AM 28.0°F-2.2°C 18.8°F-7.3°C 68% - N16091.8 kmh N -- 29.88 in1011.9 mb 0.00 in0.0 mm 0.00 in0.0 mm 0.00 in0.0 mm
02:21 AM 28.0°F-2.2°C 18.8°F-7.3°C 68% - N16091.8 kmh N -- 29.88 in1011.9 mb 0.00 in0.0 mm 0.00 in0.0 mm 0.00 in0.0 mm
02:15 AM 27.6°F-2.4°C 18.5°F-7.5°C 68% - N16091.8 kmh N -- 29.88 in1011.9 mb 0.00 in0.0 mm 0.00 in0.0 mm 0.00 in0.0 mm
02:10 AM 27.5°F-2.5°C 18.3°F-7.6°C 68% - N16091.8 kmh N -- 29.88 in1011.9 mb 0.00 in0.0 mm 0.00 in0.0 mm 0.00 in0.0 mm
02:05 AM 27.3°F-2.6°C 18.1°F-7.7°C 68% - N16091.8 kmh N -- 29.88 in1011.9 mb 0.00 in0.0 mm 0.00 in0.0 mm 0.00 in0.0 mm
02:00 AM 27.3°F-2.6°C 18.1°F-7.7°C 68% - N16091.8 kmh N -- 29.88 in1011.9 mb 0.00 in0.0 mm 0.00 in0.0 mm 0.00 in0.0 mm
01:55 AM 27.3°F-2.6°C 18.1°F-7.7°C 68% - N16091.8 kmh N -- 29.89 in1012.2 mb 0.00 in0.0 mm 0.00 in0.0 mm 0.00 in0.0 mm
01:50 AM 27.3°F-2.6°C 18.1°F-7.7°C 68% - N16091.8 kmh N -- 29.89 in1012.2 mb 0.00 in0.0 mm 0.00 in0.0 mm 0.00 in0.0 mm
01:45 AM 27.3°F-2.6°C 18.1°F-7.7°C 68% - N16091.8 kmh N -- 29.89 in1012.2 mb 0.00 in0.0 mm 0.00 in0.0 mm 0.00 in0.0 mm
01:40 AM 27.5°F-2.5°C 18.3°F-7.6°C 68% - N16091.8 kmh N -- 29.89 in1012.2 mb 0.00 in0.0 mm 0.00 in0.0 mm 0.00 in0.0 mm
01:35 AM 27.5°F-2.5°C 18.3°F-7.6°C 68% - N16091.8 kmh N -- 29.89 in1012.2 mb 0.00 in0.0 mm 0.00 in0.0 mm 0.00 in0.0 mm
01:30 AM 27.5°F-2.5°C 18.3°F-7.6°C 68% - N16091.8 kmh N -- 29.88 in1011.9 mb 0.00 in0.0 mm 0.00 in0.0 mm 0.00 in0.0 mm
01:25 AM 27.5°F-2.5°C 18.3°F-7.6°C 68% - N16091.8 kmh N -- 29.89 in1012.2 mb 0.00 in0.0 mm 0.00 in0.0 mm 0.00 in0.0 mm
01:20 AM 27.5°F-2.5°C 18.3°F-7.6°C 68% - N16091.8 kmh N -- 29.89 in1012.2 mb 0.00 in0.0 mm 0.00 in0.0 mm 0.00 in0.0 mm
01:15 AM 27.6°F-2.4°C 18.1°F-7.7°C 68% - N16091.8 kmh N -- 29.89 in1012.2 mb 0.00 in0.0 mm 0.00 in0.0 mm 0.00 in0.0 mm
01:10 AM 27.6°F-2.4°C 18.1°F-7.7°C 67% - N16091.8 kmh N -- 29.90 in1012.5 mb 0.00 in0.0 mm 0.00 in0.0 mm 0.00 in0.0 mm
01:05 AM 28.0°F-2.2°C 18.8°F-7.3°C 67% - N16091.8 kmh N -- 29.89 in1012.2 mb 0.00 in0.0 mm 0.00 in0.0 mm 0.00 in0.0 mm
01:00 AM 28.0°F-2.2°C 18.8°F-7.3°C 67% - N16091.8 kmh N -- 29.90 in1012.5 mb 0.00 in0.0 mm 0.00 in0.0 mm 0.00 in0.0 mm
12:55 AM 28.0°F-2.2°C 18.8°F-7.3°C 68% - N16091.8 kmh N -- 29.90 in1012.5 mb 0.00 in0.0 mm 0.00 in0.0 mm 0.00 in0.0 mm
12:50 AM 28.0°F-2.2°C 18.8°F-7.3°C 68% - N16091.8 kmh N -- 29.89 in1012.2 mb 0.00 in0.0 mm 0.00 in0.0 mm 0.00 in0.0 mm
12:45 AM 28.2°F-2.1°C 18.6°F-7.4°C 68% - N16091.8 kmh N -- 29.89 in1012.2 mb 0.00 in0.0 mm 0.00 in0.0 mm 0.00 in0.0 mm
12:40 AM 28.2°F-2.1°C 18.6°F-7.4°C 68% - N16091.8 kmh N -- 29.89 in1012.2 mb 0.00 in0.0 mm 0.00 in0.0 mm 0.00 in0.0 mm
12:35 AM 28.2°F-2.1°C 18.6°F-7.4°C 67% - N16091.8 kmh N -- 29.89 in1012.2 mb 0.00 in0.0 mm 0.00 in0.0 mm 0.00 in0.0 mm
12:30 AM 28.2°F-2.1°C 18.6°F-7.4°C 67% - N16091.8 kmh N -- 29.89 in1012.2 mb 0.00 in0.0 mm 0.00 in0.0 mm 0.00 in0.0 mm
12:25 AM 28.4°F-2.0°C 18.8°F-7.3°C 67% - N16091.8 kmh N -- 29.89 in1012.2 mb 0.00 in0.0 mm 0.00 in0.0 mm 0.00 in0.0 mm
12:20 AM 28.2°F-2.1°C 18.6°F-7.4°C 67% - N16091.8 kmh N -- 29.89 in1012.2 mb 0.00 in0.0 mm 0.00 in0.0 mm 0.00 in0.0 mm
12:14 AM 28.2°F-2.1°C 18.6°F-7.4°C 67% - N16091.8 kmh N -- 29.89 in1012.2 mb 0.00 in0.0 mm 0.00 in0.0 mm 0.00 in0.0 mm
12:09 AM 28.2°F-2.1°C 18.6°F-7.4°C 67% - N16091.8 kmh N -- 29.89 in1012.2 mb 0.00 in0.0 mm 0.00 in0.0 mm 0.00 in0.0 mm
12:04 AM 28.4°F-2.0°C 18.8°F-7.3°C 67% - N16091.8 kmh N -- 29.89 in1012.2 mb 0.00 in0.0 mm 0.00 in0.0 mm 0.00 in0.0 mm